Time;durP1;ratioP1;P1;durP2;ratioP2;P2;SDS_P1;SDS_P2;PMS_P1;PMS_P2;Temp;Humidity;BMP_temperature;BMP_pressure;BME280_temperature;BME280_humidity;BME280_pressure;Samples;Min_cycle;Max_cycle;Signal;HPM_P1;HPM_P2
2022/01/27 00:01:45;;;;;;;17.17;9.85;;;10.70;71.50;;;;;;6157831;23;20584;-75
2022/01/27 00:04:00;;;;;;;21.25;10.88;;;10.70;71.80;;;;;;6145272;23;20312;-75
2022/01/27 00:06:26;;;;;;;21.02;10.07;;;10.70;71.40;;;;;;6157556;23;20021;-74
2022/01/27 00:08:57;;;;;;;15.88;10.00;;;10.70;71.60;;;;;;6156915;23;20028;-75
2022/01/27 00:11:23;;;;;;;25.67;11.50;;;10.70;71.50;;;;;;6156592;23;20131;-74
2022/01/27 00:13:57;;;;;;;19.98;11.00;;;10.70;71.60;;;;;;6156489;23;20022;-74
2022/01/27 00:16:27;;;;;;;16.52;9.48;;;10.70;71.50;;;;;;6157319;23;20032;-74
2022/01/27 00:18:54;;;;;;;21.02;11.15;;;10.70;71.40;;;;;;6158801;23;20032;-75
2022/01/27 00:21:26;;;;;;;21.90;11.00;;;10.60;71.10;;;;;;6159070;23;20052;-74
2022/01/27 00:23:53;;;;;;;17.80;10.65;;;10.60;71.60;;;;;;6158312;23;20092;-75
2022/01/27 00:26:20;;;;;;;22.70;10.50;;;10.60;71.40;;;;;;6159528;23;20034;-76
2022/01/27 00:28:47;;;;;;;21.02;11.35;;;10.60;71.70;;;;;;6133067;23;20052;-75
2022/01/27 00:31:15;;;;;;;20.98;11.02;;;10.60;71.40;;;;;;6157794;23;20097;-74
2022/01/27 00:33:40;;;;;;;19.48;10.43;;;10.60;71.30;;;;;;6158883;23;20017;-74
2022/01/27 00:36:06;;;;;;;21.70;10.90;;;10.60;71.80;;;;;;6157744;23;20060;-74
2022/01/27 00:38:33;;;;;;;22.05;10.38;;;10.50;71.00;;;;;;6158908;23;20021;-75
2022/01/27 00:40:59;;;;;;;17.42;10.05;;;10.50;71.10;;;;;;6159406;23;20018;-73
2022/01/27 00:43:25;;;;;;;18.85;10.27;;;10.50;71.40;;;;;;6157471;23;20030;-74
2022/01/27 00:45:51;;;;;;;18.73;9.60;;;10.50;71.40;;;;;;6158095;23;20026;-74
2022/01/27 00:48:17;;;;;;;18.17;10.23;;;10.50;71.00;;;;;;6158177;23;20018;-75
2022/01/27 00:50:48;;;;;;;24.80;11.18;;;10.50;71.10;;;;;;6158408;23;20017;-74
2022/01/27 00:55:52;;;;;;;19.10;10.18;;;10.50;70.50;;;;;;6158950;23;20359;-74
2022/01/27 00:58:44;;;;;;;20.13;10.95;;;10.50;71.00;;;;;;6157911;23;20414;-74
2022/01/27 01:01:14;;;;;;;20.38;10.93;;;10.50;70.90;;;;;;6157536;23;20028;-74
2022/01/27 01:03:44;;;;;;;25.00;11.50;;;10.40;70.50;;;;;;6158446;23;20431;-76
2022/01/27 01:06:35;;;;;;;20.35;10.07;;;10.50;71.00;;;;;;6159494;23;20017;-74
2022/01/27 01:16:56;;;;;;;22.23;10.77;;;10.40;70.80;;;;;;6158738;23;20033;-76
2022/01/27 01:29:27;;;;;;;18.70;10.75;;;10.40;70.60;;;;;;6157506;23;20022;-76
2022/01/27 01:35:08;;;;;;;17.92;10.70;;;10.30;69.70;;;;;;6157467;23;19921;-74
2022/01/27 01:37:40;;;;;;;24.67;11.18;;;10.30;70.80;;;;;;6157504;23;20017;-74
2022/01/27 01:40:15;;;;;;;20.75;11.90;;;10.30;70.90;;;;;;6158873;23;20435;-75
2022/01/27 01:42:42;;;;;;;22.30;11.35;;;10.30;71.00;;;;;;6158604;23;20327;-74
2022/01/27 01:45:12;;;;;;;20.73;11.98;;;10.30;70.90;;;;;;6158298;23;20392;-74
2022/01/27 01:47:38;;;;;;;19.95;11.65;;;10.30;71.00;;;;;;6158973;23;20064;-75
2022/01/27 01:50:06;;;;;;;19.98;11.65;;;10.30;70.50;;;;;;6157706;23;20017;-74
2022/01/27 01:52:32;;;;;;;21.70;11.52;;;10.30;71.20;;;;;;6158298;23;20017;-75
2022/01/27 01:54:58;;;;;;;18.15;10.88;;;10.30;70.90;;;;;;6158439;23;20289;-75
2022/01/27 01:57:23;;;;;;;17.42;11.13;;;10.30;70.80;;;;;;6158948;23;20029;-73
2022/01/27 01:59:51;;;;;;;18.98;10.77;;;10.30;71.00;;;;;;6157238;23;20026;-73
2022/01/27 02:02:16;;;;;;;17.17;11.43;;;10.30;71.30;;;;;;6158154;23;20093;-76
2022/01/27 02:04:43;;;;;;;19.85;11.63;;;10.30;71.00;;;;;;6156750;23;20041;-76
2022/01/27 02:18:09;;;;;;;19.45;11.02;;;10.20;71.00;;;;;;6158200;23;20030;-74
2022/01/27 02:20:38;;;;;;;20.92;12.57;;;10.20;71.30;;;;;;6156741;23;20084;-75
2022/01/27 02:23:10;;;;;;;20.23;10.93;;;10.20;71.00;;;;;;6156436;23;20057;-74
2022/01/27 02:25:36;;;;;;;25.83;12.32;;;10.20;71.10;;;;;;6158192;23;20021;-75
2022/01/27 02:28:03;;;;;;;19.30;11.75;;;10.20;71.30;;;;;;6158291;23;20017;-74
2022/01/27 02:30:29;;;;;;;21.40;11.05;;;10.20;71.40;;;;;;6158294;23;20096;-75
2022/01/27 02:32:55;;;;;;;18.45;11.45;;;10.20;71.60;;;;;;6158304;23;20053;-74
2022/01/27 02:35:24;;;;;;;17.40;11.43;;;10.20;71.30;;;;;;6157018;23;20478;-74
2022/01/27 02:37:51;;;;;;;18.50;11.60;;;10.20;71.20;;;;;;6158838;23;20025;-75
2022/01/27 02:40:26;;;;;;;18.85;11.50;;;10.20;71.30;;;;;;6159139;23;20075;-74
2022/01/27 02:42:53;;;;;;;19.88;10.85;;;10.20;71.40;;;;;;6158202;23;20044;-75
2022/01/27 02:45:27;;;;;;;25.40;11.70;;;10.20;71.40;;;;;;6157030;23;20022;-74
2022/01/27 02:47:53;;;;;;;18.52;10.82;;;10.20;71.40;;;;;;6157019;23;20021;-74
2022/01/27 02:50:18;;;;;;;19.27;10.98;;;10.20;71.50;;;;;;6157825;23;20025;-77
2022/01/27 02:52:45;;;;;;;21.45;10.80;;;10.20;71.50;;;;;;6156264;23;20021;-74
2022/01/27 02:55:11;;;;;;;19.85;12.10;;;10.20;71.50;;;;;;6157782;23;20449;-77
2022/01/27 02:57:37;;;;;;;19.98;11.40;;;10.20;71.80;;;;;;6157826;23;20009;-74
2022/01/27 03:00:05;;;;;;;19.85;11.02;;;10.20;71.50;;;;;;6156734;23;20111;-76
2022/01/27 03:02:30;;;;;;;20.42;11.48;;;10.20;71.50;;;;;;6158221;23;20087;-76
2022/01/27 03:04:56;;;;;;;22.35;11.27;;;10.20;71.70;;;;;;6156506;23;20415;-76
2022/01/27 03:07:22;;;;;;;19.67;10.75;;;10.20;71.50;;;;;;6157540;23;20053;-74
2022/01/27 03:09:47;;;;;;;16.60;9.95;;;10.10;71.60;;;;;;6158544;23;20022;-75
2022/01/27 03:12:16;;;;;;;17.63;10.35;;;10.10;71.60;;;;;;6156221;23;20018;-74
2022/01/27 03:14:42;;;;;;;18.33;10.93;;;10.20;71.80;;;;;;6156772;23;20021;-75
2022/01/27 03:17:10;;;;;;;19.08;11.50;;;10.10;71.80;;;;;;6156331;23;20017;-74
2022/01/27 03:19:37;;;;;;;17.63;10.60;;;10.10;71.90;;;;;;6158546;23;20029;-75
2022/01/27 03:22:04;;;;;;;20.02;10.48;;;10.20;72.00;;;;;;6156765;23;20017;-74
2022/01/27 03:24:31;;;;;;;22.98;9.55;;;10.20;72.00;;;;;;6157710;23;20025;-76
2022/01/27 03:26:57;;;;;;;20.30;9.93;;;10.10;72.00;;;;;;6157947;23;20308;-73
2022/01/27 03:29:24;;;;;;;18.67;10.10;;;10.20;72.10;;;;;;6156412;23;20029;-75
2022/01/27 03:31:50;;;;;;;19.15;9.82;;;10.20;72.10;;;;;;6157582;23;20328;-74
2022/01/27 03:34:16;;;;;;;16.80;9.98;;;10.20;72.20;;;;;;6156702;23;20021;-73
2022/01/27 03:36:43;;;;;;;20.10;9.48;;;10.20;71.80;;;;;;6157750;23;20017;-75
2022/01/27 03:39:09;;;;;;;22.42;10.18;;;10.20;72.10;;;;;;6156562;23;20018;-75
2022/01/27 03:41:37;;;;;;;18.52;10.32;;;10.20;71.80;;;;;;6157838;23;20053;-77
2022/01/27 03:44:04;;;;;;;20.42;10.05;;;10.20;71.80;;;;;;6157746;23;20092;-74
2022/01/27 03:46:30;;;;;;;23.52;10.82;;;10.20;71.80;;;;;;6156497;23;20021;-74
2022/01/27 03:48:55;;;;;;;17.25;10.00;;;10.20;71.90;;;;;;6157590;23;20021;-77
2022/01/27 03:51:21;;;;;;;18.33;9.35;;;10.20;72.10;;;;;;6157323;23;20092;-73
2022/01/27 03:53:47;;;;;;;16.00;9.13;;;10.20;71.90;;;;;;6156979;23;20025;-74
2022/01/27 03:56:13;;;;;;;19.88;10.00;;;10.10;72.10;;;;;;6158449;23;20028;-73
2022/01/27 03:58:38;;;;;;;24.75;9.63;;;10.10;71.90;;;;;;6159398;23;20017;-75
2022/01/27 04:01:05;;;;;;;22.33;9.65;;;10.20;72.10;;;;;;6159561;23;20018;-74
2022/01/27 04:03:34;;;;;;;23.13;10.25;;;10.20;72.30;;;;;;6159090;23;20104;-74
2022/01/27 04:06:06;;;;;;;23.85;9.80;;;10.10;72.10;;;;;;6158630;23;20136;-75
2022/01/27 04:08:36;;;;;;;22.25;10.13;;;10.20;72.20;;;;;;6159421;23;20292;-73
2022/01/27 04:11:06;;;;;;;24.55;9.63;;;10.20;72.30;;;;;;6159797;23;20483;-74
2022/01/27 04:13:32;;;;;;;23.77;7.97;;;10.20;72.30;;;;;;6159256;23;20393;-75
2022/01/27 04:15:58;;;;;;;21.67;8.75;;;10.20;72.40;;;;;;6158253;23;20424;-74
2022/01/27 04:18:24;;;;;;;20.02;9.02;;;10.10;72.30;;;;;;6158239;23;20021;-75
2022/01/27 04:20:49;;;;;;;19.52;8.85;;;10.20;72.40;;;;;;6158571;23;20112;-73
2022/01/27 04:23:18;;;;;;;22.20;8.95;;;10.10;72.50;;;;;;6157684;23;20101;-77
2022/01/27 04:25:44;;;;;;;18.85;8.60;;;10.20;72.60;;;;;;6159953;23;20332;-75
2022/01/27 04:28:13;;;;;;;14.68;8.27;;;10.10;72.60;;;;;;6158459;23;20018;-74
2022/01/27 04:30:38;;;;;;;18.52;9.50;;;10.10;72.60;;;;;;6158141;23;20430;-74
2022/01/27 04:33:05;;;;;;;20.13;9.13;;;10.20;72.90;;;;;;6157993;23;20025;-75
2022/01/27 04:35:35;;;;;;;19.98;8.68;;;10.20;72.80;;;;;;6158682;23;20018;-75
2022/01/27 04:40:53;;;;;;;21.70;8.15;;;10.20;72.90;;;;;;6159299;23;20327;-74
2022/01/27 04:45:59;;;;;;;18.38;8.63;;;10.20;73.00;;;;;;6158745;23;20056;-73
2022/01/27 04:48:26;;;;;;;17.10;8.40;;;10.20;72.90;;;;;;6159768;23;20023;-75
2022/01/27 04:50:53;;;;;;;17.52;8.90;;;10.20;73.00;;;;;;6157584;23;20079;-75
2022/01/27 04:53:33;;;;;;;14.57;8.15;;;10.20;73.00;;;;;;6157448;23;20021;-74
2022/01/27 04:56:00;;;;;;;18.15;8.98;;;10.20;73.20;;;;;;6159061;23;20017;-74
2022/01/27 04:58:32;;;;;;;20.13;7.93;;;10.10;73.30;;;;;;6157463;23;20033;-74
2022/01/27 05:01:00;;;;;;;17.52;8.38;;;10.10;73.60;;;;;;6159251;23;20308;-75
2022/01/27 05:06:02;;;;;;;19.05;7.65;;;10.20;73.70;;;;;;6157097;23;20478;-75
2022/01/27 05:08:27;;;;;;;19.85;7.85;;;10.20;73.90;;;;;;6159193;23;20100;-73
2022/01/27 05:10:58;;;;;;;17.35;7.53;;;10.30;73.80;;;;;;6157500;23;20415;-73
2022/01/27 05:13:26;;;;;;;26.20;9.80;;;10.50;73.50;;;;;;6157769;23;20021;-75
2022/01/27 05:15:53;;;;;;;26.27;10.15;;;10.60;72.80;;;;;;6158772;23;20164;-72
2022/01/27 05:18:20;;;;;;;17.67;9.05;;;10.70;72.30;;;;;;6157809;23;20045;-71
2022/01/27 05:20:45;;;;;;;20.02;9.68;;;10.80;72.00;;;;;;6157224;23;20088;-74
2022/01/27 05:23:11;;;;;;;23.05;9.52;;;10.70;72.10;;;;;;6158329;23;20056;-75
2022/01/27 05:25:37;;;;;;;19.38;8.40;;;10.80;72.40;;;;;;6157189;23;20021;-75
2022/01/27 05:28:03;;;;;;;22.77;8.70;;;10.90;72.30;;;;;;6158670;23;20320;-75
2022/01/27 05:30:29;;;;;;;19.90;7.97;;;10.90;72.70;;;;;;6157449;23;20018;-79
2022/01/27 05:32:55;;;;;;;21.48;7.40;;;10.90;72.70;;;;;;6158959;23;20014;-75
2022/01/27 05:35:20;;;;;;;30.70;8.90;;;11.10;73.00;;;;;;6158398;23;20028;-75
2022/01/27 05:37:46;;;;;;;21.58;8.55;;;11.40;73.00;;;;;;6158424;23;20371;-77
2022/01/27 05:40:15;;;;;;;30.00;10.70;;;11.70;71.20;;;;;;6156935;23;20101;-78
2022/01/27 05:42:41;;;;;;;21.40;8.40;;;11.70;71.70;;;;;;6157075;23;20013;-76
2022/01/27 05:45:07;;;;;;;26.52;8.52;;;11.90;73.30;;;;;;6132389;23;20085;-76
2022/01/27 05:47:35;;;;;;;32.15;8.70;;;12.30;73.20;;;;;;6124864;23;20017;-77
2022/01/27 05:50:01;;;;;;;29.58;7.45;;;12.60;72.80;;;;;;6131370;23;20482;-77
2022/01/27 05:52:27;;;;;;;20.38;6.65;;;12.90;72.60;;;;;;6157877;23;20415;-76
2022/01/27 05:54:53;;;;;;;20.70;7.18;;;13.20;72.30;;;;;;6156898;23;20036;-77
2022/01/27 05:57:19;;;;;;;27.52;6.68;;;13.40;71.80;;;;;;6157499;23;20277;-76
2022/01/27 05:59:44;;;;;;;20.98;6.20;;;13.60;71.50;;;;;;6156739;23;20316;-77
2022/01/27 06:02:10;;;;;;;26.33;6.38;;;13.70;71.20;;;;;;6156651;23;20086;-78
2022/01/27 06:04:36;;;;;;;20.45;6.53;;;13.90;71.30;;;;;;6130697;23;20014;-79
2022/01/27 06:07:01;;;;;;;23.08;6.43;;;14.00;71.10;;;;;;6156710;23;20017;-79
2022/01/27 06:09:27;;;;;;;17.80;5.82;;;14.10;70.90;;;;;;6132238;23;20140;-79
2022/01/27 06:11:53;;;;;;;18.42;5.35;;;14.30;70.60;;;;;;6132298;23;20029;-78
2022/01/27 06:14:18;;;;;;;17.77;5.53;;;14.40;70.50;;;;;;6132601;23;20009;-75
2022/01/27 06:16:45;;;;;;;14.82;5.18;;;14.50;70.20;;;;;;6156595;23;20355;-79
2022/01/27 06:19:11;;;;;;;18.95;6.07;;;14.60;70.20;;;;;;6132638;23;20434;-78
2022/01/27 06:21:44;;;;;;;13.05;5.05;;;14.70;69.90;;;;;;6132691;23;20403;-80
2022/01/27 06:24:10;;;;;;;18.75;4.90;;;14.80;70.00;;;;;;6132099;23;20013;-80
2022/01/27 06:26:42;;;;;;;21.90;5.25;;;14.90;69.70;;;;;;6157373;23;20013;-75
2022/01/27 06:29:08;;;;;;;16.38;4.82;;;15.00;69.80;;;;;;6157531;23;20443;-80
2022/01/27 06:31:34;;;;;;;21.83;5.47;;;15.10;69.60;;;;;;6131953;23;20009;-79
2022/01/27 06:34:00;;;;;;;20.10;4.53;;;15.10;69.50;;;;;;6156586;23;20037;-79
2022/01/27 06:36:25;;;;;;;13.63;5.18;;;15.20;69.60;;;;;;6156605;23;20028;-79
2022/01/27 06:38:51;;;;;;;20.92;5.95;;;15.20;69.70;;;;;;6132024;23;20013;-79
2022/01/27 06:41:17;;;;;;;21.77;6.22;;;15.20;69.80;;;;;;6133201;23;20017;-79
2022/01/27 06:43:42;;;;;;;19.17;5.45;;;15.20;69.80;;;;;;6132633;23;20018;-81
2022/01/27 06:46:11;;;;;;;17.15;6.55;;;15.30;69.90;;;;;;6157598;23;20090;-79
2022/01/27 06:48:37;;;;;;;15.95;5.13;;;15.20;67.40;;;;;;6158065;23;20379;-77
2022/01/27 06:51:04;;;;;;;28.48;5.38;;;15.30;69.60;;;;;;6157900;23;20009;-77
2022/01/27 06:53:31;;;;;;;20.02;5.80;;;15.40;69.50;;;;;;6157386;23;20096;-75
2022/01/27 06:55:57;;;;;;;13.63;4.18;;;15.50;69.20;;;;;;6157144;23;20021;-78
2022/01/27 06:58:22;;;;;;;16.90;5.05;;;15.60;69.00;;;;;;6156688;23;20296;-80
2022/01/27 07:00:48;;;;;;;22.25;6.65;;;15.60;68.10;;;;;;6156208;23;20033;-79
2022/01/27 07:03:14;;;;;;;18.15;5.60;;;15.60;64.90;;;;;;6157410;23;20013;-78
2022/01/27 07:05:40;;;;;;;24.13;6.88;;;14.60;67.80;;;;;;6157871;23;20018;-79
2022/01/27 07:08:07;;;;;;;17.10;4.78;;;14.10;71.80;;;;;;6157903;23;20025;-70
2022/01/27 07:10:32;;;;;;;23.98;5.18;;;14.20;73.40;;;;;;6156921;23;20434;-79
2022/01/27 07:12:58;;;;;;;21.58;4.97;;;14.70;72.50;;;;;;6157895;23;20021;-78
2022/01/27 07:15:24;;;;;;;17.20;5.07;;;15.10;71.50;;;;;;6158235;23;20367;-80
2022/01/27 07:17:50;;;;;;;11.60;4.85;;;14.80;70.60;;;;;;6132100;23;20076;-79
2022/01/27 07:20:17;;;;;;;17.98;5.25;;;15.30;71.00;;;;;;6131852;23;20017;-78
2022/01/27 07:22:43;;;;;;;17.23;4.15;;;15.30;70.60;;;;;;6157533;23;20088;-78
2022/01/27 07:25:09;;;;;;;12.68;3.90;;;15.60;70.30;;;;;;6156101;23;20104;-76
2022/01/27 07:27:36;;;;;;;11.50;3.65;;;15.80;69.80;;;;;;6131626;23;20013;-77
2022/01/27 07:30:03;;;;;;;15.65;5.13;;;15.90;68.30;;;;;;6158346;23;20024;-78
2022/01/27 07:32:28;;;;;;;16.00;4.05;;;16.10;67.70;;;;;;6158401;23;20311;-78
2022/01/27 07:34:54;;;;;;;12.38;4.35;;;16.20;67.20;;;;;;6160207;23;20013;-80
2022/01/27 07:37:20;;;;;;;18.63;4.65;;;16.30;66.90;;;;;;6159652;23;20029;-75
2022/01/27 07:39:45;;;;;;;17.92;4.90;;;16.40;67.20;;;;;;6160015;23;20018;-80
2022/01/27 07:42:11;;;;;;;14.50;3.72;;;16.40;67.70;;;;;;6158883;23;20116;-80
2022/01/27 07:44:37;;;;;;;9.45;3.50;;;16.50;67.40;;;;;;6157237;23;20025;-78
2022/01/27 07:47:04;;;;;;;11.50;3.83;;;16.50;67.20;;;;;;6156289;23;20077;-78
2022/01/27 07:49:29;;;;;;;14.73;4.78;;;16.60;66.80;;;;;;6158451;23;20028;-79
2022/01/27 07:51:55;;;;;;;12.23;4.30;;;16.20;64.00;;;;;;6159451;23;20013;-77
2022/01/27 07:54:21;;;;;;;16.27;4.15;;;15.20;68.40;;;;;;6159623;23;20025;-76
2022/01/27 07:56:47;;;;;;;12.80;3.90;;;14.70;71.10;;;;;;6156350;23;20033;-78
2022/01/27 07:59:13;;;;;;;15.40;4.20;;;14.60;72.10;;;;;;6157507;23;20363;-79
2022/01/27 08:02:02;;;;;;;13.93;4.25;;;14.40;72.30;;;;;;6133029;23;20025;-82
2022/01/27 08:04:29;;;;;;;9.63;3.30;;;14.20;74.00;;;;;;6157154;23;20021;-77
2022/01/27 08:07:01;;;;;;;11.23;3.47;;;14.30;73.00;;;;;;6157856;23;20017;-80
2022/01/27 08:09:26;;;;;;;14.48;3.80;;;14.80;73.30;;;;;;6157704;23;20036;-74
2022/01/27 08:11:55;;;;;;;6.85;3.00;;;15.30;71.70;;;;;;6159095;23;20013;-82
2022/01/27 08:14:23;;;;;;;10.15;3.75;;;15.80;70.00;;;;;;6156520;23;20017;-75
2022/01/27 08:16:49;;;;;;;12.38;3.33;;;16.10;68.60;;;;;;6158760;23;20017;-77
2022/01/27 08:19:15;;;;;;;13.73;3.63;;;16.40;67.30;;;;;;6158126;23;20060;-82
2022/01/27 08:21:41;;;;;;;10.27;3.00;;;16.60;66.70;;;;;;6133844;23;20032;-80
2022/01/27 08:24:07;;;;;;;13.23;2.90;;;16.70;66.00;;;;;;6157783;23;20022;-82
2022/01/27 08:26:39;;;;;;;12.55;2.88;;;16.90;65.20;;;;;;6133067;23;20061;-81
2022/01/27 08:29:15;;;;;;;9.75;2.97;;;17.00;64.20;;;;;;6133635;23;20029;-81
2022/01/27 08:34:35;;;;;;;12.30;3.63;;;17.20;62.80;;;;;;6158927;23;20021;-81
2022/01/27 08:37:06;;;;;;;11.93;3.17;;;17.20;62.70;;;;;;6132862;23;20092;-82
2022/01/27 08:39:36;;;;;;;9.18;3.28;;;17.30;62.20;;;;;;6133216;23;20025;-83
2022/01/27 08:42:11;;;;;;;8.45;3.30;;;17.30;61.90;;;;;;6133156;23;20322;-84
2022/01/27 08:44:37;;;;;;;12.55;2.95;;;17.40;61.30;;;;;;6130813;23;20040;-79
2022/01/27 08:47:03;;;;;;;10.77;3.50;;;17.40;61.60;;;;;;6155845;23;20156;-78
2022/01/27 08:49:29;;;;;;;9.88;2.90;;;17.40;61.10;;;;;;6158078;23;20017;-80
2022/01/27 08:51:56;;;;;;;14.73;3.72;;;17.50;61.60;;;;;;6158328;23;20030;-80
2022/01/27 08:54:23;;;;;;;10.73;2.78;;;16.70;62.70;;;;;;6157463;23;20064;-82
2022/01/27 08:56:48;;;;;;;12.70;3.55;;;17.00;62.50;;;;;;6132992;23;20048;-80
2022/01/27 08:59:53;;;;;;;9.27;2.85;;;17.20;62.30;;;;;;6132880;23;20411;-82
2022/01/27 09:02:20;;;;;;;13.18;3.53;;;17.30;62.00;;;;;;6158927;23;20108;-80
2022/01/27 09:04:46;;;;;;;10.85;3.55;;;16.10;64.50;;;;;;6155442;23;20427;-80
2022/01/27 09:07:12;;;;;;;12.68;3.42;;;15.50;66.80;;;;;;6132473;23;20029;-77
2022/01/27 09:09:39;;;;;;;16.98;3.70;;;15.10;68.60;;;;;;6157199;23;20037;-78
2022/01/27 09:12:05;;;;;;;20.23;4.05;;;15.00;69.80;;;;;;6159056;23;20024;-74
2022/01/27 09:14:31;;;;;;;11.02;3.60;;;14.90;70.30;;;;;;6158701;23;20036;-80
2022/01/27 09:17:00;;;;;;;10.75;2.70;;;15.30;70.10;;;;;;6158745;23;20057;-85
2022/01/27 09:19:27;;;;;;;14.45;2.85;;;15.90;68.70;;;;;;6158708;23;20022;-78
2022/01/27 09:21:56;;;;;;;13.15;3.03;;;16.40;67.20;;;;;;6158830;23;20084;-82
2022/01/27 09:24:37;;;;;;;11.02;2.85;;;16.90;66.80;;;;;;6132414;23;20010;-80
2022/01/27 09:27:06;;;;;;;15.35;3.47;;;17.20;65.40;;;;;;6157222;23;20088;-81
2022/01/27 09:29:33;;;;;;;9.52;2.47;;;17.50;64.70;;;;;;6156888;23;20076;-82
2022/01/27 09:31:59;;;;;;;12.38;3.13;;;17.60;64.10;;;;;;6132574;23;20339;-77
2022/01/27 09:34:25;;;;;;;12.63;2.65;;;17.80;63.90;;;;;;6157014;23;20104;-76
2022/01/27 09:36:51;;;;;;;16.20;3.42;;;17.80;63.80;;;;;;6158435;23;20022;-78
2022/01/27 09:39:19;;;;;;;14.13;3.20;;;17.90;63.60;;;;;;6158334;23;20017;-78
2022/01/27 09:41:45;;;;;;;11.45;2.83;;;17.90;63.50;;;;;;6158441;23;20080;-78
2022/01/27 09:44:13;;;;;;;11.25;3.08;;;17.90;63.50;;;;;;6158806;23;20013;-78
2022/01/27 09:46:46;;;;;;;11.52;2.53;;;18.00;63.50;;;;;;6157908;23;20025;-81
2022/01/27 09:49:14;;;;;;;16.17;3.42;;;18.10;63.40;;;;;;6156984;23;20060;-78
2022/01/27 09:51:44;;;;;;;10.30;3.03;;;18.10;63.30;;;;;;6158095;23;20021;-79
2022/01/27 09:54:11;;;;;;;11.98;3.05;;;18.10;63.10;;;;;;6157650;23;20014;-78
2022/01/27 09:56:40;;;;;;;14.95;3.22;;;18.20;62.80;;;;;;6155607;23;20009;-77
2022/01/27 09:59:07;;;;;;;10.80;2.53;;;18.30;62.70;;;;;;6156894;23;20021;-76
2022/01/27 10:01:33;;;;;;;21.20;2.80;;;18.30;62.70;;;;;;6157720;23;20076;-73
2022/01/27 10:04:02;;;;;;;17.45;3.58;;;18.20;62.80;;;;;;6157704;23;20092;-76
2022/01/27 10:06:31;;;;;;;11.50;2.50;;;18.20;62.80;;;;;;6158051;23;20060;-77
2022/01/27 10:09:25;;;;;;;8.95;2.92;;;18.20;63.00;;;;;;6158319;23;20124;-77
2022/01/27 10:11:51;;;;;;;15.23;3.00;;;18.20;62.90;;;;;;6154489;23;20017;-77
2022/01/27 10:14:31;;;;;;;15.23;3.35;;;18.20;63.10;;;;;;6157521;23;20080;-77
2022/01/27 10:17:01;;;;;;;18.15;3.00;;;18.20;62.40;;;;;;6156686;23;20021;-76
2022/01/27 10:19:27;;;;;;;13.60;2.67;;;18.20;62.60;;;;;;6156204;23;20029;-74
2022/01/27 10:22:01;;;;;;;15.82;3.40;;;18.20;62.80;;;;;;6156376;23;20021;-78
2022/01/27 10:24:31;;;;;;;13.90;3.00;;;18.30;62.50;;;;;;6157903;23;20017;-76
2022/01/27 10:32:46;;;;;;;14.18;3.40;;;18.30;61.60;;;;;;6158361;23;20060;-77
2022/01/27 10:35:14;;;;;;;14.75;2.40;;;18.20;61.30;;;;;;6157894;23;20020;-75
2022/01/27 10:38:05;;;;;;;15.82;2.95;;;18.20;61.70;;;;;;6156851;23;20018;-73
2022/01/27 10:40:45;;;;;;;11.52;2.70;;;18.20;61.60;;;;;;6157991;23;20018;-75
2022/01/27 10:43:22;;;;;;;13.73;3.00;;;18.20;62.20;;;;;;6158542;23;20018;-76
2022/01/27 10:46:12;;;;;;;18.52;2.85;;;18.20;63.10;;;;;;6157567;23;20021;-75
2022/01/27 10:48:47;;;;;;;12.43;3.33;;;18.20;63.90;;;;;;6158027;23;20028;-76
2022/01/27 10:51:25;;;;;;;11.18;2.95;;;18.20;64.30;;;;;;6133229;23;20025;-73
2022/01/27 10:54:04;;;;;;;11.90;2.55;;;18.20;64.40;;;;;;6158382;23;20017;-80
2022/01/27 10:56:39;;;;;;;18.60;3.53;;;18.20;65.50;;;;;;6156280;23;20332;-76
2022/01/27 10:59:13;;;;;;;11.80;2.90;;;18.20;67.70;;;;;;6157290;23;20332;-76
2022/01/27 11:01:46;;;;;;;16.48;2.72;;;18.20;66.70;;;;;;6157826;23;20036;-78
2022/01/27 11:04:14;;;;;;;15.00;3.00;;;18.10;65.90;;;;;;6157868;23;20017;-76
2022/01/27 11:06:59;;;;;;;13.23;3.00;;;18.10;66.00;;;;;;6153798;23;20051;-80
2022/01/27 11:09:26;;;;;;;15.32;2.60;;;18.10;66.00;;;;;;6157308;23;20017;-76
2022/01/27 11:11:53;;;;;;;11.57;2.58;;;18.10;66.90;;;;;;6156398;23;20028;-75
2022/01/27 11:14:20;;;;;;;11.38;3.13;;;18.10;66.00;;;;;;6157403;23;20021;-75
2022/01/27 11:16:49;;;;;;;14.52;2.92;;;18.10;66.00;;;;;;6158511;23;20049;-75
2022/01/27 11:22:12;;;;;;;;;;;18.00;66.50;;;;;;6158271;23;20112;-79
2022/01/27 11:25:50;;;;;;;17.65;2.92;;;18.00;66.00;;;;;;6156259;23;19927;-78
2022/01/27 11:27:37;;;;;;;12.95;3.17;;;18.10;66.20;;;;;;6152880;23;20097;-77
2022/01/27 11:30:47;;;;;;;14.88;2.60;;;18.00;65.90;;;;;;6157475;23;20017;-77
2022/01/27 11:33:16;;;;;;;14.40;2.40;;;18.00;65.80;;;;;;6158544;23;20062;-77
2022/01/27 11:35:43;;;;;;;8.90;2.38;;;18.00;66.10;;;;;;6157773;23;20427;-77
2022/01/27 11:38:10;;;;;;;13.60;2.88;;;17.90;66.30;;;;;;6156604;23;20088;-76
2022/01/27 11:40:46;;;;;;;9.05;2.65;;;18.00;66.20;;;;;;6157193;23;20379;-77
2022/01/27 11:43:25;;;;;;;15.02;2.78;;;18.00;66.40;;;;;;6156636;23;20032;-76
2022/01/27 11:45:52;;;;;;;14.27;2.58;;;18.00;66.30;;;;;;6156257;23;20026;-77
2022/01/27 11:48:26;;;;;;;13.70;2.53;;;18.00;66.30;;;;;;6157614;23;20021;-78
2022/01/27 11:51:13;;;;;;;13.85;2.55;;;18.00;66.00;;;;;;6156616;23;20145;-79
2022/01/27 11:53:49;;;;;;;12.43;2.55;;;18.00;66.20;;;;;;6158339;23;20092;-77
2022/01/27 11:56:27;;;;;;;15.90;2.55;;;18.00;66.20;;;;;;6156938;23;20025;-78
2022/01/27 11:58:58;;;;;;;9.50;3.03;;;18.00;66.10;;;;;;6156640;23;20022;-76
2022/01/27 12:01:31;;;;;;;10.45;2.40;;;18.00;65.90;;;;;;6157364;23;20427;-71
2022/01/27 12:04:06;;;;;;;18.88;2.58;;;18.00;66.00;;;;;;6157468;23;20056;-77
2022/01/27 12:06:39;;;;;;;10.23;2.63;;;18.00;66.00;;;;;;6157566;23;20432;-78
2022/01/27 12:09:17;;;;;;;14.23;2.10;;;18.00;66.00;;;;;;6156455;23;20021;-76
2022/01/27 12:11:50;;;;;;;16.63;3.20;;;18.00;65.90;;;;;;6155547;23;20018;-72
2022/01/27 12:14:26;;;;;;;12.55;2.30;;;18.00;66.10;;;;;;6157059;23;20021;-79
2022/01/27 12:17:12;;;;;;;11.25;3.08;;;17.90;66.20;;;;;;6157573;23;20022;-78
2022/01/27 12:20:03;;;;;;;10.57;2.85;;;17.90;66.30;;;;;;6157298;23;20092;-77
2022/01/27 12:22:53;;;;;;;16.88;2.95;;;17.90;66.30;;;;;;6159039;23;20029;-78
2022/01/27 12:25:20;;;;;;;7.45;2.70;;;17.90;66.00;;;;;;6157721;23;20022;-74
2022/01/27 12:27:57;;;;;;;12.52;2.10;;;17.90;65.80;;;;;;6158943;23;20018;-76
2022/01/27 12:30:23;;;;;;;11.77;2.35;;;17.90;65.70;;;;;;6158632;23;20024;-78
2022/01/27 12:32:54;;;;;;;8.95;2.13;;;17.90;65.60;;;;;;6157424;23;20092;-75
2022/01/27 12:35:22;;;;;;;10.40;2.75;;;17.90;65.40;;;;;;6157731;23;20028;-75
2022/01/27 12:37:50;;;;;;;11.15;2.83;;;18.00;65.40;;;;;;6158210;23;20018;-74
2022/01/27 12:40:22;;;;;;;16.10;3.10;;;17.90;65.10;;;;;;6158727;23;20289;-74
2022/01/27 12:42:57;;;;;;;14.57;2.97;;;18.00;65.00;;;;;;6158420;23;20454;-73
2022/01/27 12:45:28;;;;;;;16.00;2.97;;;17.90;64.90;;;;;;6158371;23;20021;-74
2022/01/27 12:47:56;;;;;;;10.13;2.25;;;17.90;64.80;;;;;;6157667;23;20092;-71
2022/01/27 12:50:23;;;;;;;11.82;2.58;;;18.00;64.90;;;;;;6158720;23;20013;-74
2022/01/27 12:52:57;;;;;;;9.98;2.40;;;17.90;64.80;;;;;;6158517;23;20029;-75
2022/01/27 12:55:33;;;;;;;11.68;2.63;;;18.00;64.70;;;;;;6158317;23;20055;-75
2022/01/27 12:58:08;;;;;;;13.48;2.95;;;17.90;63.10;;;;;;6158813;23;20071;-76
2022/01/27 13:00:49;;;;;;;17.65;2.70;;;18.00;63.00;;;;;;6157843;23;20017;-73
2022/01/27 13:03:16;;;;;;;11.98;2.65;;;18.00;63.00;;;;;;6157673;23;20420;-77
2022/01/27 13:05:50;;;;;;;7.10;1.95;;;18.00;63.40;;;;;;6158185;23;20021;-75
2022/01/27 13:08:18;;;;;;;9.80;2.38;;;18.00;63.40;;;;;;6157629;23;20025;-73
2022/01/27 13:10:55;;;;;;;15.27;2.92;;;18.00;63.00;;;;;;6156825;23;20122;-75
2022/01/27 13:13:25;;;;;;;7.95;2.20;;;17.90;60.40;;;;;;6157589;23;20442;-72
2022/01/27 13:16:07;;;;;;;9.02;2.10;;;17.40;62.90;;;;;;6158004;23;20023;-75
2022/01/27 13:18:43;;;;;;;9.55;2.67;;;17.60;63.00;;;;;;6158128;23;20043;-75
2022/01/27 13:21:24;;;;;;;10.02;2.75;;;17.70;63.00;;;;;;6158472;23;20025;-75
2022/01/27 13:24:16;;;;;;;11.23;2.42;;;17.80;62.80;;;;;;6158410;23;20048;-71
2022/01/27 13:26:45;;;;;;;10.90;2.70;;;17.90;63.70;;;;;;6156904;23;20096;-77
2022/01/27 13:29:15;;;;;;;8.38;2.25;;;18.00;63.80;;;;;;6158145;23;20084;-75
2022/01/27 13:31:42;;;;;;;10.98;2.42;;;18.00;63.50;;;;;;6153368;23;20025;-76
2022/01/27 13:34:11;;;;;;;11.85;2.10;;;18.00;63.30;;;;;;6157251;23;20092;-81
2022/01/27 13:36:37;;;;;;;12.10;2.75;;;18.00;63.30;;;;;;6157892;23;20025;-78
2022/01/27 13:41:36;;;;;;;8.90;2.70;;;18.10;63.30;;;;;;6158242;23;20032;-75
2022/01/27 13:44:05;;;;;;;12.48;2.95;;;18.10;63.40;;;;;;6157145;23;20096;-75